Date,TemperatureHighF,TemperatureAvgF,TemperatureLowF,DewpointHighF,DewpointAvgF,DewpointLowF,HumidityHigh,HumidityAvg,HumidityLow,PressureMaxIn,PressureMinIn,WindSpeedMaxMPH,WindSpeedAvgMPH,GustSpeedMaxMPH,PrecipitationSumIn
2013-1-1,27.7,20.6,13.3,15.0,11.3,8.0,81,68,57,30.56,30.37,15,4,0,0.00
2013-1-2,18.7,8.3,1.9,8.0,2.4,-3.0,84,77,64,30.77,30.52,4,0,0,0.00
2013-1-3,17.1,8.1,2.6,7.0,1.8,-2.0,83,75,64,30.72,30.51,0,0,0,0.00
2013-1-4,21.0,10.8,1.7,12.0,4.0,-3.0,82,74,61,30.59,30.44,5,0,0,0.00
2013-1-5,27.7,17.6,9.9,15.0,10.2,5.0,82,73,58,30.56,30.29,6,1,0,0.00
2013-1-6,35.7,24.8,15.3,25.0,16.7,10.0,83,72,61,30.28,30.05,11,2,0,0.00
2013-1-7,41.4,30.2,22.1,29.0,20.6,15.0,75,68,56,30.05,29.73,24,2,0,0.00
2013-1-8,40.9,35.8,25.2,27.0,21.2,18.0,74,56,43,30.01,29.74,26,7,0,0.00
2013-1-9,46.7,38.6,26.5,29.0,24.3,19.0,76,58,42,29.99,29.58,7,1,0,0.00
2013-1-10,36.3,22.7,8.5,27.0,16.7,1.0,85,78,67,30.06,29.53,16,6,0,0.00
2013-1-11,9.8,7.0,0.9,2.0,-0.4,-5.0,77,72,63,30.44,30.07,10,4,0,0.00
2013-1-12,6.3,-0.2,-7.7,0.0,-5.5,-13.0,83,78,74,30.57,30.41,4,0,0,0.00
2013-1-13,8.3,2.9,-2.6,0.0,-2.9,-8.0,82,77,68,30.61,30.50,4,0,0,0.00
2013-1-14,13.5,4.2,-6.5,9.0,-1.2,-11.0,92,78,70,30.60,30.42,8,1,0,0.00
2013-1-15,34.4,26.7,13.7,21.0,16.5,9.0,81,66,53,30.47,30.36,26,6,0,0.01
2013-1-16,43.8,37.5,22.9,23.0,18.5,12.0,65,47,38,30.43,30.28,26,9,0,0.00
2013-1-17,37.6,23.5,14.8,18.0,13.8,8.0,78,67,46,30.53,30.30,8,0,0,0.00
2013-1-18,50.6,34.3,20.4,21.0,15.6,13.0,74,50,25,30.34,30.02,36,6,0,0.00
2013-1-19,44.8,38.4,31.4,22.0,15.8,12.0,61,41,31,30.31,30.12,15,4,0,0.00
2013-1-20,42.9,25.6,21.5,18.0,16.3,14.0,79,69,36,30.52,30.23,14,2,0,0.00
2013-1-21,31.7,23.2,16.3,20.0,16.5,12.0,84,75,61,30.41,30.21,6,0,0,0.00
2013-1-22,38.6,26.1,15.3,17.0,13.8,9.0,77,61,36,30.34,30.16,11,1,0,0.00
2013-1-23,33.4,27.0,21.2,21.0,17.6,14.0,76,68,57,30.26,29.97,6,0,0,0.00
2013-1-24,46.2,37.9,28.2,31.0,23.7,20.0,73,57,45,30.12,29.93,26,-4,0,0.00
2013-1-25,42.4,34.4,27.5,29.0,25.3,21.0,79,70,55,30.15,29.94,3,0,0,0.00
2013-1-26,45.0,35.2,27.5,32.0,27.8,23.0,86,75,60,29.93,29.68,16,2,0,0.00
2013-1-27,34.8,31.3,25.9,26.0,17.4,14.0,76,57,44,29.93,29.79,15,7,0,0.00
2013-1-28,34.4,28.0,23.6,17.0,13.9,10.0,71,57,37,29.95,29.76,13,4,0,0.00
2013-1-29,27.0,16.6,9.0,18.0,5.8,-3.0,75,63,53,30.34,29.77,16,3,0,0.00
2013-1-30,39.3,26.7,10.5,27.0,16.6,1.0,76,66,55,30.26,30.01,28,8,0,0.00
2013-1-31,42.5,40.5,37.9,30.0,26.6,24.0,71,58,55,30.10,29.99,29,14,0,0.00
2013-2-1,42.5,38.7,34.4,31.0,24.5,20.0,82,58,44,30.29,30.01,32,10,0,0.02
2013-2-2,44.7,37.9,28.7,23.0,21.7,20.0,72,53,42,30.41,30.26,24,7,0,0.00
2013-2-3,45.8,33.6,21.4,24.0,20.8,17.0,83,62,37,30.25,30.00,19,4,0,0.00
2013-2-4,43.2,40.0,36.4,26.0,23.7,21.0,64,53,47,29.97,29.90,23,9,0,0.00
2013-2-5,43.5,37.2,31.5,29.0,25.7,23.0,76,64,56,29.97,29.75,11,3,0,0.00
2013-2-6,41.9,36.1,30.6,27.0,21.2,17.0,81,55,42,30.13,29.79,20,7,0,0.00
2013-2-7,39.7,30.5,22.3,22.0,18.9,15.0,77,63,44,30.09,29.94,7,2,0,0.00
2013-2-8,40.7,29.8,20.2,24.0,19.0,15.0,82,65,47,30.09,29.93,10,4,0,0.00
2013-2-9,35.7,29.1,22.8,25.0,19.0,14.0,89,68,45,30.09,29.87,21,6,0,0.00
2013-2-10,29.1,23.8,12.1,22.0,15.6,7.0,84,71,56,30.32,30.09,13,4,0,0.02
2013-2-11,34.8,20.8,6.6,20.0,12.1,2.0,83,70,55,30.32,30.13,13,3,0,0.01
2013-2-12,39.6,36.3,24.1,25.0,22.0,16.0,70,57,49,30.17,30.02,26,10,0,0.00
2013-2-13,43.6,40.1,34.7,27.0,22.9,20.0,62,51,41,30.16,29.90,32,14,0,0.00
2013-2-14,35.4,27.7,20.8,22.0,19.6,17.0,87,73,53,30.44,30.19,21,5,0,0.08
2013-2-15,43.9,37.8,32.7,27.0,23.1,18.0,64,56,49,30.45,30.23,26,9,0,0.00
2013-2-16,48.2,35.7,23.6,29.0,24.9,20.0,85,66,44,30.25,29.77,14,2,0,0.00
2013-2-17,37.3,33.3,28.3,29.0,21.7,19.0,86,63,49,30.09,29.73,23,10,0,0.00
2013-2-18,35.8,27.1,16.2,25.0,19.5,12.0,87,74,49,30.22,29.95,8,2,0,0.01
2013-2-19,38.0,29.6,24.6,21.0,18.0,16.0,75,63,45,29.95,29.70,6,2,0,0.00
2013-2-20,36.6,28.0,21.2,26.0,19.3,13.0,86,71,49,29.97,29.82,10,2,0,0.00
2013-2-21,33.1,27.8,18.6,18.0,12.1,10.0,71,53,38,30.07,29.94,22,7,0,0.00
2013-2-22,41.9,34.5,28.1,20.0,17.0,14.0,62,50,36,29.99,29.60,27,7,0,0.00
2013-2-23,37.9,32.1,28.5,26.0,15.9,9.0,79,53,36,30.13,29.54,19,9,0,0.00
2013-2-24,37.9,30.9,21.1,15.0,13.5,12.0,68,49,36,30.27,30.10,24,9,0,0.00
2013-2-25,38.8,30.9,22.1,25.0,16.1,13.0,68,55,43,30.10,29.86,16,4,0,0.00
2013-2-26,36.6,31.7,25.3,18.0,15.0,12.0,60,51,40,30.29,29.98,23,9,0,0.00
2013-2-27,43.9,30.3,19.0,17.0,14.4,12.0,76,54,32,30.39,30.20,18,3,0,0.00
2013-2-28,43.8,35.3,25.4,27.0,20.7,16.0,72,56,43,30.34,30.22,22,6,0,0.00
2013-3-1,53.3,46.0,34.2,33.0,30.8,27.0,77,56,44,30.30,30.18,25,10,0,0.00
2013-3-2,56.2,42.7,32.9,31.0,28.1,25.0,78,58,35,30.27,29.85,15,3,0,0.00
2013-3-3,43.7,35.3,22.7,33.0,20.5,6.0,84,57,28,30.16,29.65,39,13,0,0.01
2013-3-4,28.1,22.0,14.4,15.0,10.8,7.0,81,63,44,30.45,30.16,12,4,0,0.00
2013-3-5,36.5,23.2,10.7,19.0,11.3,4.0,74,62,42,30.42,30.07,10,4,0,0.00
2013-3-6,39.9,30.3,24.1,31.0,22.7,18.0,91,75,49,30.05,29.73,7,2,0,0.02
2013-3-7,45.3,35.3,26.3,31.0,21.2,16.0,95,61,33,30.06,29.81,16,4,0,0.01
2013-3-8,48.9,34.6,21.9,20.0,16.0,10.0,71,50,25,30.07,29.86,12,4,0,0.00
2013-3-9,46.1,37.4,29.6,21.0,18.0,13.0,61,47,34,30.26,29.99,19,9,0,0.00
2013-3-10,49.7,39.9,32.5,28.0,19.7,16.0,64,46,27,30.31,30.06,22,8,0,0.00
2013-3-11,41.1,35.5,26.0,26.0,21.5,18.0,78,57,46,30.35,30.02,20,10,0,0.00
2013-3-12,48.6,33.6,20.4,30.0,21.4,15.0,83,63,41,30.35,30.05,12,2,0,0.00
2013-3-13,59.0,49.6,36.5,30.0,28.2,25.0,70,46,29,30.09,30.00,23,6,0,0.00
2013-3-14,60.4,46.1,32.5,33.0,28.9,25.0,74,53,34,30.17,29.86,9,2,0,0.00
2013-3-15,56.0,50.1,41.9,31.0,27.0,23.0,55,41,31,29.97,29.81,24,9,0,0.00
2013-3-16,52.4,43.7,35.2,28.0,24.3,20.0,68,48,30,29.97,29.57,19,6,0,0.00
2013-3-17,40.0,31.8,17.9,30.0,18.1,11.0,85,59,37,30.05,29.47,32,13,0,0.00
2013-3-18,37.7,26.0,14.2,24.0,14.5,9.0,87,65,32,30.09,29.95,27,9,0,0.00
2013-3-19,46.7,32.4,26.9,20.0,13.1,4.0,74,48,18,30.31,30.03,27,8,0,0.00
2013-3-20,59.2,39.7,24.0,32.0,21.0,11.0,74,49,30,30.09,29.44,24,6,0,0.00
2013-3-21,38.8,33.6,27.3,24.0,14.3,7.0,68,46,30,29.99,29.57,31,11,0,0.00
2013-3-22,29.2,25.5,20.8,14.0,11.9,10.0,70,57,45,30.33,29.96,13,5,0,0.00
2013-3-23,30.2,20.1,11.3,19.0,8.7,2.0,84,63,33,30.47,30.32,14,4,0,0.00
2013-3-24,37.3,23.8,9.5,17.0,8.1,3.0,79,55,24,30.50,30.30,9,3,0,0.00
2013-3-25,47.2,28.9,14.3,14.0,9.0,5.0,66,47,21,30.34,30.04,12,4,0,0.00
2013-3-26,52.6,39.4,29.0,21.0,17.6,13.0,56,43,27,30.05,29.88,10,4,0,0.00
2013-3-27,57.2,40.0,23.7,32.0,22.6,16.0,73,52,30,30.07,29.90,8,2,0,0.00
2013-3-28,59.7,46.2,31.2,38.0,31.2,26.0,80,59,32,30.09,29.91,14,4,0,0.01
2013-3-29,54.9,46.9,37.9,35.0,32.2,28.0,78,58,38,30.10,29.97,21,7,0,0.00
2013-3-30,57.7,47.7,37.5,31.0,27.3,24.0,69,48,28,30.17,30.01,15,7,0,0.00
2013-3-31,56.3,47.2,37.6,30.0,25.7,23.0,63,45,32,30.07,29.98,14,5,0,0.00
2013-4-1,61.6,44.5,29.1,27.0,24.2,21.0,73,48,26,30.12,29.92,10,3,0,0.00
2013-4-2,66.7,49.0,28.7,34.0,27.4,20.0,71,46,28,30.08,29.83,16,6,0,0.00
2013-4-3,59.0,53.0,42.6,33.0,31.4,28.0,59,45,32,29.99,29.82,19,6,0,0.00
2013-4-4,64.4,49.1,37.8,43.0,32.8,28.0,71,55,34,30.02,29.66,22,4,0,0.00
2013-4-5,57.5,50.0,41.8,41.0,32.4,26.0,82,54,30,29.81,29.61,26,10,0,0.00
2013-4-6,52.9,45.7,39.6,40.0,31.6,27.0,75,58,47,29.82,29.71,29,6,0,0.03
2013-4-7,50.3,39.3,28.8,37.0,30.4,23.0,88,71,57,29.86,29.50,15,4,0,0.33
2013-4-8,28.3,24.1,19.3,22.0,14.2,9.0,80,66,53,30.46,29.85,19,8,0,0.00
2013-4-9,40.1,27.4,15.8,18.0,12.8,9.0,76,56,34,30.55,30.28,9,3,0,0.00
2013-4-10,56.9,41.2,25.8,38.0,26.9,18.0,74,59,40,30.28,29.72,22,6,0,0.02
2013-4-11,50.9,45.1,37.9,33.0,24.7,18.0,66,46,28,29.97,29.70,22,12,0,0.00
2013-4-12,51.0,41.8,30.7,28.0,23.6,21.0,74,51,32,30.09,29.51,15,4,0,0.00
2013-4-13,50.1,40.4,31.9,35.0,22.8,8.0,83,52,23,29.69,29.34,30,11,0,0.02
2013-4-14,32.9,28.0,22.1,26.0,20.4,14.0,88,74,54,30.10,29.71,12,4,0,0.13
2013-4-15,31.0,24.8,19.8,15.0,13.6,11.0,78,63,47,30.27,30.06,14,7,0,0.01
2013-4-16,31.9,25.5,20.6,18.0,14.4,9.0,76,64,44,30.43,30.23,15,7,0,0.00
2013-4-17,39.5,28.4,17.6,18.0,14.4,11.0,83,59,34,30.46,30.30,10,4,0,0.00
2013-4-18,50.3,35.8,18.0,22.0,17.7,11.0,76,51,32,30.35,30.13,22,8,0,0.00
2013-4-19,52.4,44.3,37.2,36.0,28.0,21.0,72,53,45,30.12,29.76,24,6,0,0.00
2013-4-20,54.4,47.4,42.4,34.0,29.1,24.0,72,51,34,29.94,29.79,32,11,0,0.00
2013-4-21,44.0,27.5,21.5,28.0,21.8,17.0,89,80,48,30.40,29.93,12,6,0,0.05
2013-4-22,38.5,28.4,21.5,19.0,14.2,1.0,84,60,21,30.55,30.38,10,4,0,0.03
2013-4-23,46.6,33.6,17.6,24.0,17.7,12.0,80,55,28,30.41,30.18,19,4,0,0.00
2013-4-24,58.2,44.2,27.2,26.0,21.7,19.0,71,45,24,30.32,29.85,23,8,0,0.00
2013-4-25,63.6,52.9,41.5,27.0,23.3,20.0,43,32,23,29.92,29.73,27,10,0,0.00
2013-4-26,69.4,56.6,42.2,32.0,27.5,-99.9,56,35,23,30.06,29.90,24,-2,0,0.00
2013-4-27,69.4,58.5,42.4,34.0,28.4,24.0,60,34,19,30.00,29.74,30,10,0,0.00
2013-4-28,61.1,53.1,45.8,38.0,30.5,24.0,71,44,27,29.91,29.72,26,10,0,0.01
2013-4-29,54.7,46.3,37.0,37.0,24.1,15.0,73,43,23,29.78,29.45,36,15,0,0.01
2013-4-30,39.3,33.9,26.3,25.0,18.6,11.0,74,55,36,30.33,29.76,18,7,0,0.00
2013-5-1,47.4,35.9,23.6,22.0,16.8,15.0,73,49,28,30.61,30.34,21,6,0,0.00
2013-5-2,65.4,46.1,24.0,22.0,18.0,12.0,69,38,15,30.66,30.17,16,5,0,0.00
2013-5-3,54.9,49.0,42.5,40.0,29.1,19.0,82,49,28,30.22,30.07,14,5,0,0.04
2013-5-4,56.5,47.7,42.2,39.0,37.1,34.0,84,68,47,30.27,30.12,13,4,0,0.02
2013-5-5,67.0,51.4,34.8,37.0,33.7,30.0,85,55,29,30.16,29.84,12,4,0,0.00
2013-5-6,73.7,56.9,40.6,38.0,32.9,28.0,72,45,20,29.93,29.66,10,4,0,0.00
2013-5-7,69.6,57.6,41.4,38.0,34.4,30.0,66,43,31,29.90,29.71,15,7,0,0.00
2013-5-8,75.4,60.1,45.0,39.0,34.4,30.0,60,40,19,30.04,29.85,9,3,0,0.00
2013-5-9,73.1,60.5,47.3,46.0,37.9,33.0,63,45,27,30.04,29.89,10,4,0,0.00
2013-5-10,68.3,57.0,42.3,38.0,34.7,31.0,71,45,27,30.30,29.94,16,5,0,0.00
2013-5-11,77.8,59.8,39.6,42.0,35.7,29.0,67,43,24,30.23,29.90,15,5,0,0.00
2013-5-12,86.1,68.4,48.1,46.0,40.5,36.0,64,39,19,29.95,29.69,18,5,0,0.00
2013-5-13,86.3,70.6,56.2,49.0,43.7,34.0,58,40,16,29.80,29.40,21,7,0,0.00
2013-5-14,70.7,58.6,48.9,39.0,29.6,24.0,55,36,18,29.88,29.73,24,9,0,0.00
2013-5-15,70.1,58.6,48.3,39.0,29.9,25.0,58,35,25,29.93,29.70,12,4,0,0.01
2013-5-16,64.4,55.3,43.4,44.0,38.2,34.0,78,55,36,29.77,29.68,16,5,0,0.03
2013-5-17,56.0,49.6,42.5,46.0,40.4,33.0,86,71,53,29.83,29.77,10,3,0,0.09
2013-5-18,59.1,52.0,47.5,49.0,44.4,40.0,89,76,52,29.92,29.80,15,3,0,0.11
2013-5-19,54.5,50.6,47.2,46.0,43.0,40.0,87,75,68,30.11,29.89,10,3,0,0.16
2013-5-20,63.7,52.8,47.0,46.0,44.0,42.0,88,73,46,30.16,29.99,10,5,0,0.09
2013-5-21,73.4,56.7,40.5,46.0,39.6,33.0,91,59,24,30.04,29.59,18,5,0,0.00
2013-5-22,62.3,54.7,43.5,45.0,39.4,35.0,82,57,46,29.76,29.55,19,6,0,0.28
2013-5-23,53.2,43.3,36.0,38.0,34.6,32.0,85,72,45,29.92,29.75,13,6,0,0.41
2013-5-24,63.0,51.4,41.1,38.0,33.1,27.0,85,54,26,29.92,29.76,20,6,0,0.01
2013-5-25,63.6,53.7,42.1,43.0,36.6,32.0,68,53,41,29.89,29.77,9,4,0,0.00
2013-5-26,64.9,52.1,42.7,46.0,38.6,33.0,84,62,40,29.90,29.74,15,4,0,0.19
2013-5-27,61.9,52.0,42.4,46.0,42.4,38.0,90,71,49,29.87,29.64,14,4,0,0.00
2013-5-28,59.0,52.5,48.3,46.0,43.5,41.0,89,72,52,29.67,29.61,11,4,0,0.15
2013-5-29,65.0,55.2,50.0,47.0,42.4,40.0,82,63,43,29.66,29.48,12,3,0,0.00
2013-5-30,57.2,52.1,47.6,41.0,35.3,32.0,71,54,41,29.88,29.62,26,13,0,0.00
2013-5-31,54.8,50.3,43.9,43.0,36.1,32.0,81,59,48,30.23,29.88,22,10,0,0.00
2013-6-1,65.9,52.9,37.1,44.0,37.9,33.0,85,60,34,30.27,29.88,12,4,0,0.00
2013-6-2,62.3,53.4,47.0,46.0,41.1,38.0,79,64,42,29.88,29.70,15,4,0,0.06
2013-6-3,58.4,48.2,43.7,44.0,40.4,38.0,87,75,47,30.07,29.75,25,7,0,0.31
2013-6-4,58.4,49.1,41.0,40.0,36.6,34.0,86,64,45,30.21,30.07,10,3,0,0.00
2013-6-5,75.2,56.4,37.8,46.0,39.3,33.0,83,57,26,30.15,29.80,15,4,0,0.00
2013-6-6,77.6,65.0,47.3,51.0,45.2,39.0,80,51,35,29.95,29.73,13,4,0,0.00
2013-6-7,79.1,64.1,51.8,54.0,46.1,40.0,80,55,30,29.77,29.55,24,7,0,0.00
2013-6-8,77.9,67.1,53.7,47.0,36.8,28.0,67,36,18,29.80,29.65,22,9,0,0.00
2013-6-9,82.8,68.1,52.8,45.0,35.0,26.0,57,33,14,29.78,29.52,25,8,0,0.00
2013-6-10,79.6,65.6,49.9,41.0,34.5,27.0,45,32,21,29.71,29.52,10,4,0,0.00
2013-6-11,67.7,60.4,52.4,52.0,45.3,40.0,85,59,41,29.89,29.56,12,3,0,0.10
2013-6-12,70.6,58.5,46.5,58.0,51.1,43.0,88,77,57,29.93,29.72,12,3,0,0.44
2013-6-13,59.0,54.1,49.9,55.0,43.5,37.0,85,68,52,29.95,29.71,21,6,0,0.04
2013-6-14,62.4,53.9,42.3,38.0,34.5,30.0,79,51,31,30.01,29.90,26,9,0,0.01
2013-6-15,75.4,59.5,41.7,40.0,34.0,31.0,72,43,20,30.02,29.76,24,6,0,0.00
2013-6-16,74.9,62.6,48.0,48.0,39.9,32.0,59,44,30,29.95,29.86,10,4,0,0.00
2013-6-17,81.0,66.3,49.7,52.0,45.0,41.0,74,49,25,29.96,29.67,14,3,0,0.00
2013-6-18,81.7,68.2,54.3,56.0,47.9,43.0,70,50,29,29.73,29.44,18,4,0,0.00
2013-6-19,72.5,59.5,49.6,52.0,47.0,39.0,77,64,48,29.70,29.39,24,7,0,0.38
2013-6-20,61.1,53.9,48.0,46.0,38.9,35.0,71,58,43,29.96,29.59,20,5,0,0.02
2013-6-21,64.8,55.4,43.4,42.0,38.8,35.0,73,55,37,29.98,29.87,10,3,0,0.00
2013-6-22,66.6,54.7,46.6,48.0,42.4,38.0,89,65,39,29.98,29.80,18,3,0,0.52
2013-6-23,75.0,60.0,40.6,47.0,42.8,36.0,87,57,31,29.91,29.54,10,2,0,0.00
2013-6-24,72.1,63.4,54.1,55.0,47.3,42.0,69,57,41,29.54,29.41,11,4,0,0.02
2013-6-25,74.0,63.0,53.0,53.0,47.8,43.0,87,61,35,29.71,29.52,22,6,0,0.02
2013-6-26,73.7,64.9,56.4,51.0,47.2,43.0,72,54,34,29.93,29.69,23,7,0,0.00
2013-6-27,85.6,70.9,56.9,53.0,48.3,45.0,68,47,26,30.04,29.90,16,6,0,0.00
2013-6-28,90.4,75.3,58.2,54.0,49.5,46.0,64,43,24,30.06,29.86,15,6,0,0.00
2013-6-29,87.6,73.3,59.1,61.0,54.3,50.0,74,53,28,29.95,29.79,18,4,0,0.03
2013-6-30,90.2,74.5,58.4,60.0,55.9,52.0,81,56,31,29.92,29.79,9,4,0,0.00
2013-7-1,92.8,79.1,63.0,62.0,57.2,52.0,75,49,26,29.95,29.79,10,3,0,0.00
2013-7-2,100.7,79.3,63.7,62.0,56.4,51.0,70,48,20,29.89,29.66,12,4,0,0.00
2013-7-3,92.8,82.0,66.4,58.0,51.6,43.0,73,38,21,29.73,29.55,24,8,0,0.00
2013-7-4,89.5,78.5,64.0,55.0,48.6,44.0,54,36,24,29.68,29.46,20,6,0,0.00
2013-7-5,82.0,71.9,59.9,54.0,45.3,37.0,70,40,27,29.63,29.49,16,5,0,0.00
2013-7-6,82.2,66.6,50.8,50.0,46.4,42.0,80,52,26,29.79,29.59,10,4,0,0.00
2013-7-7,87.6,71.6,57.3,55.0,49.5,42.0,72,48,21,29.77,29.55,12,4,0,0.00
2013-7-8,81.7,70.7,60.5,55.0,49.1,38.0,69,48,26,29.88,29.66,14,4,0,0.02
2013-7-9,86.8,70.5,52.8,50.0,41.4,33.0,68,40,15,30.00,29.80,20,6,0,0.00
2013-7-10,92.7,75.2,54.9,50.0,42.5,37.0,54,33,17,29.89,29.53,10,4,0,0.00
2013-7-11,87.1,74.2,61.5,51.0,44.0,40.0,66,36,20,29.68,29.47,27,6,0,0.00
2013-7-12,83.8,67.1,53.2,53.0,45.8,42.0,71,49,24,29.77,29.60,29,5,0,0.03
2013-7-13,81.1,68.8,54.4,47.0,41.4,33.0,66,40,19,29.93,29.69,16,6,0,0.00
2013-7-14,86.5,70.6,53.5,50.0,41.4,34.0,61,38,16,29.99,29.72,13,4,0,0.00
2013-7-15,93.5,72.2,56.9,50.0,40.1,33.0,56,34,15,29.91,29.59,18,6,0,0.00
2013-7-16,82.7,67.6,53.5,51.0,45.9,42.0,66,48,32,30.04,29.84,13,5,0,0.00
2013-7-17,84.2,68.9,59.7,63.0,58.2,51.0,88,70,44,29.96,29.72,10,2,0,0.27
2013-7-18,88.6,72.7,56.8,60.0,47.5,35.0,84,49,15,30.01,29.80,21,5,0,0.00
2013-7-19,89.3,74.2,55.9,47.0,39.1,31.0,58,32,13,29.91,29.72,28,6,0,0.00
2013-7-20,90.5,73.9,57.9,50.0,39.3,31.0,53,32,12,29.81,29.56,15,4,0,0.00
2013-7-21,91.4,79.1,62.8,39.0,34.5,28.0,40,21,11,29.66,29.49,15,6,0,0.00
2013-7-22,89.9,75.7,57.6,43.0,34.1,27.0,36,23,12,29.70,29.57,20,6,0,0.00
2013-7-23,91.3,74.9,57.9,46.0,39.9,34.0,51,30,13,29.88,29.70,12,3,0,0.00
2013-7-24,95.0,76.5,57.5,49.0,40.4,26.0,51,31,9,29.86,29.65,19,6,0,0.00
2013-7-25,89.0,74.6,60.7,53.0,50.2,48.0,67,44,25,29.93,29.75,9,3,0,0.00
2013-7-26,94.6,77.4,58.4,55.0,43.1,28.0,70,37,10,29.94,29.69,15,5,0,0.00
2013-7-27,89.6,77.2,60.8,51.0,34.4,28.0,50,23,12,29.75,29.55,15,5,0,0.00
2013-7-28,80.3,70.9,61.0,53.0,49.2,46.0,73,48,30,29.71,29.58,8,4,0,0.00
2013-7-29,74.8,64.5,56.4,49.0,47.0,45.0,74,54,37,29.89,29.64,14,4,0,0.23
2013-7-30,77.8,66.1,55.4,52.0,48.2,46.0,73,54,34,30.00,29.87,8,3,0,0.00
2013-7-31,87.2,71.0,52.5,51.0,44.8,40.0,74,44,19,30.07,29.79,9,4,0,0.00
2013-8-1,73.8,63.6,57.8,55.0,48.9,39.0,88,62,29,29.90,29.74,18,3,0,0.72
2013-8-2,72.2,62.3,51.7,54.0,48.8,44.0,91,64,37,29.93,29.74,19,5,0,0.12
2013-8-3,77.8,64.4,52.3,51.0,47.9,45.0,79,57,34,29.98,29.84,10,3,0,0.00
2013-8-4,83.0,68.5,53.5,51.0,44.5,39.0,74,47,22,29.93,29.74,19,4,0,0.00
2013-8-5,84.7,68.7,51.6,50.0,43.4,40.0,68,43,21,29.85,29.64,21,6,0,0.00
2013-8-6,83.3,68.7,54.0,51.0,45.6,39.0,73,47,23,29.87,29.74,12,3,0,0.00
2013-8-7,88.0,70.9,54.1,51.0,42.6,36.0,60,39,17,29.85,29.66,12,4,0,0.00
2013-8-8,83.2,69.4,57.0,53.0,48.5,44.0,66,49,30,29.88,29.75,11,4,0,0.00
2013-8-9,80.0,67.6,59.0,57.0,52.3,49.0,75,59,40,29.94,29.78,10,3,0,0.03
2013-8-10,81.5,67.4,54.2,55.0,49.6,41.0,78,56,27,29.93,29.77,30,4,0,0.00
2013-8-11,80.8,69.4,59.0,52.0,47.1,40.0,70,47,26,29.89,29.78,22,3,0,0.00
2013-8-12,81.7,67.7,54.9,52.0,45.3,39.0,61,46,23,29.92,29.80,10,3,0,0.01
2013-8-13,84.7,69.5,56.2,52.0,46.5,42.0,74,46,25,29.98,29.76,15,3,0,0.29
2013-8-14,88.4,67.9,51.4,57.0,46.0,35.0,81,52,16,29.98,29.76,11,3,0,0.00
2013-8-15,90.9,71.9,55.0,52.0,41.5,35.0,53,35,19,29.87,29.66,9,3,0,0.00
2013-8-16,95.5,74.3,56.6,52.0,39.5,32.0,51,31,11,29.81,29.61,18,4,0,0.00
2013-8-17,90.3,78.5,67.3,49.0,44.8,39.0,43,31,19,29.81,29.62,24,5,0,0.00
2013-8-18,89.2,78.2,65.5,50.0,45.3,41.0,52,32,20,29.81,29.65,23,7,0,0.00
2013-8-19,92.2,76.2,61.0,48.0,40.4,33.0,50,30,13,29.83,29.61,27,7,0,0.00
2013-8-20,88.8,75.5,63.8,45.0,41.3,37.0,41,30,19,29.80,29.62,23,6,0,0.00
2013-8-21,86.4,72.4,57.1,43.0,37.6,33.0,41,29,18,29.91,29.76,11,3,0,0.00
2013-8-22,83.7,70.1,54.6,51.0,42.9,35.0,51,38,28,29.91,29.68,15,3,0,0.00
2013-8-23,83.7,71.3,58.6,57.0,49.1,43.0,66,47,25,29.73,29.54,10,3,0,0.02
2013-8-24,83.6,69.5,54.4,53.0,48.5,44.0,71,50,29,29.78,29.60,16,4,0,0.00
2013-8-25,86.8,68.2,53.0,53.0,48.8,45.0,76,53,26,29.82,29.62,15,4,0,0.00
2013-8-26,84.3,70.5,55.3,51.0,47.6,45.0,72,47,26,29.86,29.66,11,3,0,0.01
2013-8-27,87.1,70.3,55.2,56.0,46.6,42.0,64,45,22,29.87,29.66,7,2,0,0.00
2013-8-28,79.7,67.9,56.6,56.0,48.5,41.0,71,51,36,29.85,29.69,15,3,0,0.02
2013-8-29,90.2,69.9,54.1,60.0,51.4,45.0,82,56,24,29.96,29.68,12,3,0,0.03
2013-8-30,86.6,72.1,57.6,54.0,46.3,42.0,65,43,21,29.89,29.73,22,5,0,0.00
2013-8-31,82.3,70.1,56.5,47.0,41.5,36.0,57,37,22,29.96,29.79,11,4,0,0.00
2013-9-1,89.3,69.1,50.6,48.0,39.7,33.0,52,36,20,29.92,29.67,10,4,0,0.00
2013-9-2,82.2,71.0,56.6,50.0,41.8,36.0,48,35,24,29.76,29.66,10,2,0,0.00
2013-9-3,85.3,70.9,59.4,57.0,46.5,40.0,70,43,27,29.93,29.74,21,4,0,0.00
2013-9-4,87.2,72.2,60.6,59.0,54.8,48.0,78,57,30,29.97,29.78,11,3,0,0.00
2013-9-5,83.0,69.2,57.5,61.0,52.5,47.0,74,56,37,29.89,29.75,25,3,0,0.02
2013-9-6,80.0,66.3,57.6,61.0,57.0,53.0,87,73,40,29.90,29.73,19,3,0,0.35
2013-9-7,76.3,66.6,62.2,61.0,57.8,56.0,84,74,53,29.93,29.77,12,2,0,0.02
2013-9-8,73.1,63.6,56.3,59.0,51.9,42.0,90,68,43,29.85,29.71,20,5,0,0.00
2013-9-9,74.2,63.5,54.9,52.0,46.7,43.0,73,55,37,29.91,29.77,19,6,0,0.00
2013-9-10,79.2,63.1,47.8,52.0,46.6,42.0,82,58,31,30.01,29.85,8,2,0,0.00
2013-9-11,81.6,68.3,53.9,50.0,45.1,41.0,67,45,29,30.09,29.94,11,4,0,0.00
2013-9-12,84.0,67.5,53.2,50.0,45.6,43.0,69,47,26,30.09,29.80,7,3,0,0.00
2013-9-13,83.7,69.4,56.0,53.0,47.3,44.0,68,48,28,29.82,29.57,11,3,0,0.00
2013-9-14,74.3,68.2,61.3,50.0,47.1,45.0,59,47,38,29.91,29.62,14,4,0,0.00
2013-9-15,80.2,65.9,51.6,52.0,47.2,42.0,72,52,34,29.97,29.68,10,3,0,0.00
2013-9-16,86.4,69.1,54.5,54.0,48.0,41.0,77,51,22,29.72,29.48,10,2,0,0.00
2013-9-17,67.1,56.8,51.9,53.0,47.4,41.0,93,73,44,29.67,29.53,8,2,0,0.12
2013-9-18,59.8,53.4,47.6,49.0,40.0,34.0,91,63,40,29.96,29.55,20,7,0,0.01
2013-9-19,66.4,54.4,45.6,39.0,36.1,33.0,73,52,29,30.10,29.94,14,5,0,0.00
2013-9-20,78.7,55.3,37.6,42.0,35.7,31.0,77,52,19,30.01,29.61,10,3,0,0.00
2013-9-21,80.3,60.9,44.7,42.0,33.8,30.0,58,39,18,29.63,29.37,11,4,0,0.00
2013-9-22,65.0,58.4,49.2,41.0,39.0,34.0,68,50,37,29.61,29.39,19,5,0,0.00
2013-9-23,61.8,52.3,41.1,39.0,34.6,30.0,81,54,30,29.84,29.60,25,7,0,0.00
2013-9-24,53.3,47.1,42.3,44.0,37.1,31.0,90,69,46,29.85,29.70,8,1,0,0.44
2013-9-25,48.0,43.8,38.9,43.0,39.3,36.0,92,84,75,29.76,29.63,13,4,0,0.13
2013-9-26,44.5,40.2,36.0,36.0,33.8,31.0,87,78,64,30.04,29.77,13,5,0,0.14
2013-9-27,52.5,42.3,30.4,35.0,30.7,27.0,89,66,43,30.06,29.87,16,4,0,0.00
2013-9-28,62.8,52.2,41.5,40.0,36.1,33.0,76,56,41,29.88,29.60,13,3,0,0.00
2013-9-29,62.0,52.7,43.7,38.0,34.7,29.0,78,52,40,29.68,29.37,26,8,0,0.03
2013-9-30,55.4,49.7,45.1,42.0,31.5,25.0,82,52,31,29.86,29.40,27,10,0,0.12
2013-10-1,54.8,45.8,34.8,34.0,30.1,27.0,77,56,39,29.96,29.84,14,4,0,0.00
2013-10-2,54.5,45.1,36.3,30.0,27.4,23.0,69,52,35,30.12,29.88,12,3,0,0.00
2013-10-3,44.6,36.8,34.7,35.0,30.6,28.0,88,78,62,30.41,29.90,14,8,0,0.24
2013-10-4,48.5,39.9,33.4,31.0,27.6,23.0,80,63,45,30.52,30.38,14,3,0,0.01
2013-10-5,61.4,42.9,27.8,31.0,25.7,20.0,85,56,21,30.43,30.23,15,3,0,0.00
2013-10-6,66.3,48.4,31.1,40.0,32.9,26.0,82,57,35,30.29,29.97,8,2,0,0.00
2013-10-7,70.3,51.5,35.4,36.0,30.9,29.0,77,49,23,29.96,29.61,19,4,0,0.00
2013-10-8,51.8,45.7,35.8,31.0,26.9,23.0,67,49,32,29.95,29.69,23,7,0,0.00
2013-10-9,54.1,42.3,32.6,34.0,30.5,25.0,77,64,44,30.08,29.82,8,2,0,0.00
2013-10-10,56.1,42.6,29.3,35.0,28.5,22.0,85,61,27,29.84,29.70,19,5,0,0.00
2013-10-11,52.3,44.9,39.2,30.0,24.8,21.0,61,47,31,30.03,29.80,19,8,0,0.00
2013-10-12,48.0,38.4,28.4,29.0,24.8,20.0,77,59,43,30.15,30.02,10,2,0,0.00
2013-10-13,48.7,42.0,35.3,33.0,30.2,28.0,80,64,49,30.20,30.09,12,4,0,0.00
2013-10-14,45.0,40.4,35.0,33.0,29.8,26.0,81,67,47,30.44,30.18,9,3,0,0.00
2013-10-15,53.2,38.2,23.8,31.0,24.2,20.0,85,61,30,30.47,30.14,14,3,0,0.00
2013-10-16,42.2,35.5,26.7,34.0,27.9,21.0,84,74,54,30.25,30.10,5,1,0,0.03
2013-10-17,45.7,36.7,31.2,35.0,31.5,28.0,89,81,62,30.32,30.18,13,2,0,0.09
2013-10-18,55.9,40.9,26.1,33.0,26.9,22.0,92,61,31,30.34,30.04,16,4,0,0.00
2013-10-19,60.2,51.6,42.9,29.0,26.5,24.0,51,39,27,30.02,29.81,19,7,0,0.00
2013-10-20,57.7,48.6,40.6,35.0,32.3,29.0,73,55,38,30.06,29.94,10,3,0,0.00
2013-10-21,62.3,47.7,33.4,36.0,33.3,28.0,85,60,37,30.19,30.00,13,3,0,0.00
2013-10-22,66.6,47.1,33.1,38.0,32.4,29.0,88,61,26,30.21,30.00,13,2,0,0.00
2013-10-23,60.6,44.2,31.3,35.0,30.4,25.0,79,60,37,30.22,30.07,6,1,0,0.00
2013-10-24,58.0,43.8,31.4,37.0,33.0,27.0,85,67,44,30.25,30.07,8,2,0,0.00
2013-10-25,64.2,43.4,29.0,35.0,30.0,25.0,88,63,30,30.27,30.10,5,0,0,0.00
2013-10-26,65.1,44.7,27.9,32.0,25.8,22.0,81,53,21,30.34,30.00,11,2,0,0.00
2013-10-27,54.5,39.2,28.3,29.0,24.9,21.0,73,58,33,30.21,29.74,23,4,0,0.00
2013-10-28,28.0,20.9,18.6,20.0,14.7,12.0,85,77,68,30.40,30.21,14,5,0,0.00
2013-10-29,31.5,23.0,17.3,22.0,16.8,12.0,85,77,65,30.32,30.03,6,2,0,0.05
2013-10-30,47.4,31.8,17.8,27.0,20.9,15.0,88,67,41,30.07,29.91,15,3,0,0.00
2013-10-31,46.9,42.6,38.4,33.0,26.9,23.0,68,54,46,30.01,29.80,34,10,0,0.00
2013-11-1,52.1,44.2,39.0,30.0,27.9,26.0,66,54,38,30.16,30.02,18,7,0,0.00
2013-11-2,55.5,39.6,30.6,36.0,29.0,24.0,82,67,40,30.09,29.53,16,3,0,0.06
2013-11-3,39.2,34.4,27.3,29.0,21.0,17.0,86,59,46,29.99,29.64,20,6,0,0.00
2013-11-4,34.4,26.7,16.8,24.0,19.9,13.0,89,76,59,30.19,30.00,7,1,0,0.03
2013-11-5,38.1,31.8,23.5,26.0,15.9,9.0,74,54,32,30.23,30.09,19,4,0,0.00
2013-11-6,43.1,37.8,32.1,30.0,23.9,19.0,82,59,40,30.33,30.10,20,7,0,0.00
2013-11-7,49.1,39.7,32.0,37.0,28.4,22.0,78,64,54,30.32,29.60,20,2,0,0.07
2013-11-8,43.9,40.8,37.6,31.0,25.6,20.0,64,55,48,30.09,29.73,14,6,0,0.00
2013-11-9,44.1,36.4,28.7,25.0,22.7,21.0,73,59,42,30.25,30.11,9,2,0,0.00
2013-11-10,46.0,36.0,30.3,33.0,26.8,24.0,81,70,53,30.25,30.08,6,1,0,0.00
2013-11-11,40.2,32.7,28.2,32.0,27.9,25.0,90,82,73,30.51,30.24,6,1,0,0.00
2013-11-12,48.8,35.5,22.1,36.0,29.2,20.0,92,79,57,30.51,30.24,5,1,0,0.01
2013-11-13,52.2,45.8,39.3,35.0,29.2,24.0,73,54,37,30.22,30.06,22,6,0,0.00
2013-11-14,47.0,41.3,36.1,26.0,23.0,20.0,58,49,35,30.10,29.71,19,6,0,0.00
2013-11-15,42.4,38.8,34.1,22.0,19.5,17.0,55,46,40,29.69,29.34,22,8,0,0.00
2013-11-16,39.9,34.5,29.5,28.0,22.5,16.0,82,63,48,29.57,29.21,21,5,0,0.00
2013-11-17,39.1,33.2,25.6,21.0,17.1,12.0,65,52,40,29.97,29.60,18,4,0,0.00
2013-11-18,47.7,36.1,24.8,22.0,18.4,15.0,66,50,33,30.03,29.72,7,1,0,0.00
2013-11-19,55.0,44.6,27.1,34.0,26.1,18.0,71,50,36,29.72,29.50,19,5,0,0.00
2013-11-20,26.6,10.4,-2.1,18.0,3.0,-8.0,83,72,62,30.67,29.66,9,3,0,0.00
2013-11-21,18.1,4.7,-6.4,8.0,-1.3,-12.0,83,76,64,30.92,30.68,2,0,0,0.01
2013-11-22,26.9,12.0,2.3,12.0,4.9,-3.0,92,74,53,30.97,30.81,6,0,0,0.01
2013-11-23,29.2,14.8,4.6,15.0,7.6,0.0,83,74,55,30.86,30.48,4,0,0,0.02
2013-11-24,30.9,21.7,9.4,22.0,14.9,5.0,85,75,62,30.47,30.32,2,0,0,0.00
2013-11-25,37.8,26.4,16.3,24.0,18.5,11.0,85,72,55,30.52,30.36,5,0,0,0.01
2013-11-26,39.4,27.8,17.5,26.0,21.0,14.0,88,76,58,30.53,30.20,6,0,0,0.00
2013-11-27,42.2,30.7,24.3,28.0,23.6,19.0,86,75,56,30.25,30.11,5,1,0,0.00
2013-11-28,36.4,25.8,17.3,25.0,19.7,13.0,87,78,62,30.29,30.14,4,0,0,0.00
2013-11-29,44.1,31.8,18.4,26.0,22.0,15.0,89,69,46,30.32,30.14,10,1,0,0.00
2013-11-30,46.5,42.7,39.8,31.0,30.0,24.0,70,61,52,30.16,30.06,12,4,0,0.00
2013-12-1,46.1,40.9,35.2,36.0,31.7,27.0,84,70,58,30.06,29.61,27,4,0,0.02
2013-12-2,38.5,26.8,8.9,34.0,21.8,0.0,91,81,66,30.13,29.48,12,4,0,0.20
2013-12-3,8.7,4.6,1.0,2.0,-3.4,-7.0,77,70,63,30.56,30.15,13,6,0,0.00
2013-12-4,4.5,0.2,-8.5,-2.0,-7.8,-16.0,74,69,59,30.61,30.52,11,2,0,0.00
2013-12-5,2.4,-5.4,-12.7,-7.0,-13.5,-20.0,73,68,60,30.72,30.56,7,1,0,0.00
2013-12-6,-6.0,-11.0,-15.2,-15.0,-20.5,-24.0,67,63,55,30.87,30.71,10,4,0,0.00
2013-12-7,-6.6,-14.3,-20.0,-19.0,-23.1,-28.0,71,65,55,30.82,30.54,6,1,0,0.00
2013-12-8,0.3,-8.1,-17.7,-5.0,-14.1,-24.0,90,75,69,30.67,30.54,2,0,0,0.00
2013-12-9,23.7,11.2,-11.2,12.0,1.5,-17.0,80,66,56,30.64,30.23,20,5,0,0.00
2013-12-10,26.3,24.4,20.8,15.0,13.2,11.0,72,63,56,30.38,30.15,21,7,0,0.00
2013-12-11,31.8,26.5,18.1,17.0,14.8,11.0,74,62,54,30.45,30.35,16,4,0,0.00
2013-12-12,35.2,27.2,21.9,20.0,17.3,14.0,79,67,53,30.39,30.08,8,1,0,0.00
2013-12-13,39.5,35.3,21.9,26.0,24.0,15.0,77,64,56,30.25,30.02,18,7,0,0.00
2013-12-14,45.0,40.8,37.0,29.0,25.2,23.0,60,54,48,30.29,30.09,21,9,0,0.00
2013-12-15,51.0,42.6,34.0,27.0,23.4,19.0,59,47,36,30.16,29.95,29,5,0,0.00
2013-12-16,47.5,42.9,35.6,26.0,21.9,19.0,56,44,35,30.28,29.98,22,6,0,0.00
2013-12-17,45.0,36.2,26.6,22.0,19.8,17.0,69,52,39,30.28,29.83,7,2,0,0.00
2013-12-18,47.0,39.2,12.7,24.0,19.5,5.0,81,48,32,30.01,29.64,14,5,0,0.00
2013-12-19,11.8,6.7,1.7,4.0,-2.6,-5.0,77,66,56,30.45,30.03,9,3,0,0.00
2013-12-20,18.4,11.1,2.3,14.0,4.3,-3.0,85,74,66,30.25,29.74,4,0,0,0.00
2013-12-21,31.6,25.9,17.3,22.0,17.1,14.0,88,71,57,30.05,29.74,21,5,0,0.00
2013-12-22,31.5,18.7,8.1,24.0,12.4,3.0,85,76,66,30.46,29.96,8,1,0,0.00
2013-12-23,41.5,24.0,12.5,32.0,18.7,8.0,89,80,53,30.42,29.94,25,3,0,0.06
2013-12-24,37.1,34.2,30.4,22.0,17.6,15.0,62,51,44,30.45,30.02,29,12,0,0.00
2013-12-25,40.1,29.2,16.3,16.0,13.6,9.0,73,53,32,30.55,30.26,18,4,0,0.00
2013-12-26,48.0,43.6,38.3,27.0,24.0,15.0,59,46,37,30.31,30.11,14,5,0,0.00
2013-12-27,49.1,38.3,28.1,26.0,23.4,21.0,74,57,37,30.23,29.87,14,2,0,0.00
2013-12-28,43.7,21.7,14.0,24.0,11.8,4.0,78,67,46,30.55,29.90,23,3,0,0.00
2013-12-29,37.0,26.8,12.3,24.0,15.9,8.0,84,66,46,30.53,30.09,23,6,0,0.00
2013-12-30,44.9,37.5,33.1,31.0,23.6,22.0,70,58,43,30.19,29.91,22,4,0,0.00
2013-12-31,45.0,41.3,37.7,33.0,28.6,23.0,70,61,53,30.08,29.89,23,9,0,0.01
2014-1-1,39.3,36.3,31.8,22.0,19.6,17.0,58,51,44,30.33,30.07,19,8,0,0.00
2014-1-2,38.7,32.3,24.1,23.0,19.4,16.0,74,60,48,30.31,29.77,8,2,0,0.00